地図

経路データ

SID SEASON NUMBER BASIN SUBBASIN NAME ISO_TIME NATURE LAT LON WMO_WIND WMO_PRES WMO_AGENCY TRACK_TYPE DIST2LAND LANDFALL IFLAG USA_AGENCY USA_ATCF_ID USA_LAT USA_LON USA_RECORD USA_STATUS USA_WIND USA_PRES USA_SSHS USA_R34_NE USA_R34_SE USA_R34_SW USA_R34_NW USA_R50_NE USA_R50_SE USA_R50_SW USA_R50_NW USA_R64_NE USA_R64_SE USA_R64_SW USA_R64_NW USA_POCI USA_ROCI USA_RMW USA_EYE TOKYO_LAT TOKYO_LON TOKYO_GRADE TOKYO_WIND TOKYO_PRES TOKYO_R50_DIR TOKYO_R50_LONG TOKYO_R50_SHORT TOKYO_R30_DIR TOKYO_R30_LONG TOKYO_R30_SHORT TOKYO_LAND CMA_LAT CMA_LON CMA_CAT CMA_WIND CMA_PRES HKO_LAT HKO_LON HKO_CAT HKO_WIND HKO_PRES NEWDELHI_LAT NEWDELHI_LON NEWDELHI_GRADE NEWDELHI_WIND NEWDELHI_PRES NEWDELHI_CI NEWDELHI_DP NEWDELHI_POCI REUNION_LAT REUNION_LON REUNION_TYPE REUNION_WIND REUNION_PRES REUNION_TNUM REUNION_CI REUNION_RMW REUNION_R34_NE REUNION_R34_SE REUNION_R34_SW REUNION_R34_NW REUNION_R50_NE REUNION_R50_SE REUNION_R50_SW REUNION_R50_NW REUNION_R64_NE REUNION_R64_SE REUNION_R64_SW REUNION_R64_NW BOM_LAT BOM_LON BOM_TYPE BOM_WIND BOM_PRES BOM_TNUM BOM_CI BOM_RMW BOM_R34_NE BOM_R34_SE BOM_R34_SW BOM_R34_NW BOM_R50_NE BOM_R50_SE BOM_R50_SW BOM_R50_NW BOM_R64_NE BOM_R64_SE BOM_R64_SW BOM_R64_NW BOM_ROCI BOM_POCI BOM_EYE BOM_POS_METHOD BOM_PRES_METHOD NADI_LAT NADI_LON NADI_CAT NADI_WIND NADI_PRES WELLINGTON_LAT WELLINGTON_LON WELLINGTON_WIND WELLINGTON_PRES DS824_LAT DS824_LON DS824_STAGE DS824_WIND DS824_PRES TD9636_LAT TD9636_LON TD9636_STAGE TD9636_WIND TD9636_PRES TD9635_LAT TD9635_LON TD9635_WIND TD9635_PRES TD9635_ROCI NEUMANN_LAT NEUMANN_LON NEUMANN_CLASS NEUMANN_WIND NEUMANN_PRES MLC_LAT MLC_LON MLC_CLASS MLC_WIND MLC_PRES USA_GUST BOM_GUST BOM_GUST_PER REUNION_GUST REUNION_GUST_PER USA_SEAHGT USA_SEARAD_NE USA_SEARAD_SE USA_SEARAD_SW USA_SEARAD_NW STORM_SPEED STORM_DIR
1882325N09089 1882 40 NI BB NOT_NAMED 1882-11-21 00:00:00 TS 8.50000 88.8000 main 777 745 _________O____ -1 8.50000 88.8000 TC 30 5 276
1882325N09089 1882 40 NI BB NOT_NAMED 1882-11-21 03:00:00 TS 8.52674 88.5250 main 745 714 _________PO___ -1 8.54011 88.3875 TC 30 8.50000 88.8000 1 6 278
1882325N09089 1882 40 NI BB NOT_NAMED 1882-11-21 06:00:00 TS 8.58510 88.1713 main 714 672 _________OP___ -1 8.60000 88.0000 TC 30 8.56274 88.4282 1 7 281
1882325N09089 1882 40 NI BB NOT_NAMED 1882-11-21 09:00:00 TS 8.66578 87.8236 main 672 639 _________PP___ -1 8.69243 87.6500 TC 30 8.63025 88.0550 1 7 284
1882325N09089 1882 40 NI BB NOT_NAMED 1882-11-21 12:00:00 TS 8.75381 87.4897 main 642 599 _________OP___ -1 8.80000 87.3000 TC 30 8.70763 87.6794 1 7 284
1882325N09089 1882 40 NI BB NOT_NAMED 1882-11-21 15:00:00 TS 8.84625 87.1000 main 599 559 _________PO___ -1 8.89250 86.9000 TC 30 8.80000 87.3000 1 8 285
1882325N09089 1882 40 NI BB NOT_NAMED 1882-11-21 18:00:00 TS 8.95528 86.7085 main 561 533 _________OP___ -1 9.00000 86.5000 TC 30 8.91057 86.9169 1 8 288
1882325N09089 1882 40 NI BB NOT_NAMED 1882-11-21 21:00:00 TS 9.09244 86.3388 main 523 495 _________PP___ -1 9.14994 86.1425 TC 30 9.03494 86.5350 1 8 291
1882325N09089 1882 40 NI BB NOT_NAMED 1882-11-22 00:00:00 TS 9.23342 85.9803 main 495 459 _________OP___ -1 9.30000 85.8000 TC 30 9.16683 86.1606 1 8 290
1882325N09089 1882 40 NI BB NOT_NAMED 1882-11-22 03:00:00 TS 9.34999 85.6212 main 459 434 _________PO___ -1 9.39999 85.4424 TC 30 9.30000 85.8000 1 7 288
1882325N09089 1882 40 NI BB NOT_NAMED 1882-11-22 06:00:00 TS 9.46243 85.2782 main 440 414 _________OP___ -1 9.50000 85.1000 TC 30 9.42487 85.4565 1 7 291
1882325N09089 1882 40 NI BB NOT_NAMED 1882-11-22 09:00:00 TS 9.59989 84.9600 main 414 390 _________PP___ -1 9.64995 84.7925 TC 30 9.54983 85.1274 1 7 294
1882325N09089 1882 40 NI BB NOT_NAMED 1882-11-22 12:00:00 TS 9.73744 84.6548 main 390 365 _________OP___ -1 9.80000 84.5000 TC 30 9.67489 84.8096 1 7 293
1882325N09089 1882 40 NI BB NOT_NAMED 1882-11-22 15:00:00 TS 9.84999 84.3500 main 355 340 _________PO___ -1 9.89997 84.1999 TC 30 9.80000 84.5000 1 6 290
1882325N09089 1882 40 NI BB NOT_NAMED 1882-11-22 18:00:00 TS 9.96040 84.0484 main 337 325 _________OP___ -1 10.0000 83.9000 TC 30 9.92080 84.1968 1 6 292
1882325N09089 1882 40 NI BB NOT_NAMED 1882-11-22 21:00:00 TS 10.0924 83.7537 main 325 303 _________PP___ -1 10.1425 83.6075 TC 30 10.0423 83.8998 1 6 295
1882325N09089 1882 40 NI BB NOT_NAMED 1882-11-23 00:00:00 TS 10.2338 83.4515 main 303 280 _________OP___ -1 10.3000 83.3000 TC 30 10.1677 83.6030 1 7 295
1882325N09089 1882 40 NI BB NOT_NAMED 1882-11-23 03:00:00 TS 10.3750 83.1250 main 280 257 _________PO___ -1 10.4500 82.9500 TC 30 10.3000 83.3000 1 7 294
1882325N09089 1882 40 NI BB NOT_NAMED 1882-11-23 06:00:00 TS 10.5173 82.7910 main 257 236 _________OP___ -1 10.6000 82.6000 TC 30 10.4346 82.9821 1 7 294
1882325N09089 1882 40 NI BB NOT_NAMED 1882-11-23 09:00:00 TS 10.6599 82.4786 main 243 227 _________PP___ -1 10.7424 82.2999 TC 30 10.5774 82.6573 1 7 296
1882325N09089 1882 40 NI BB NOT_NAMED 1882-11-23 12:00:00 TS 10.8157 82.1645 main 227 207 _________OP___ -1 10.9000 82.0000 TC 30 10.7315 82.3289 1 7 298
1882325N09089 1882 40 NI BB NOT_NAMED 1882-11-23 15:00:00 TS 10.9963 81.8250 main 207 174 _________PO___ -1 11.0925 81.6500 TC 30 10.9000 82.0000 1 8 299
1882325N09089 1882 40 NI BB NOT_NAMED 1882-11-23 18:00:00 TS 11.1887 81.4874 main 174 142 _________OP___ -1 11.3000 81.3000 TC 30 11.0774 81.6749 1 8 301
1882325N09089 1882 40 NI BB NOT_NAMED 1882-11-23 21:00:00 TS 11.3812 81.1711 main 143 114 _________PP___ -1 11.4924 80.9924 TC 30 11.2699 81.3498 1 7 303
1882325N09089 1882 40 NI BB NOT_NAMED 1882-11-24 00:00:00 TS 11.5887 80.8624 main 117 79 _________OP___ -1 11.7000 80.7000 TC 30 11.4774 81.0248 1 8 306
1882325N09089 1882 40 NI BB NOT_NAMED 1882-11-24 03:00:00 TS 11.8212 80.5537 main 79 34 _________PO___ -1 11.9424 80.4074 TC 30 11.7000 80.7000 1 8 309
1882325N09089 1882 40 NI BB NOT_NAMED 1882-11-24 06:00:00 TS 12.0758 80.2436 main 24 0 _________OP___ -1 12.2000 80.1000 TC 30 11.9517 80.3872 1 8 310
1882325N09089 1882 40 NI BB NOT_NAMED 1882-11-24 09:00:00 TS 12.3398 79.9187 main 0 0 _________PP___ -1 12.4650 79.7650 TC 30 12.2147 80.0725 1 8 308
1882325N09089 1882 40 NI BB NOT_NAMED 1882-11-24 12:00:00 TS 12.5852 79.5733 main 0 0 _________OP___ -1 12.7000 79.4000 TC 30 12.4704 79.7465 1 8 302
1882325N09089 1882 40 NI BB NOT_NAMED 1882-11-24 15:00:00 TS 12.7825 79.2037 main 0 0 _________PO___ -1 12.8650 79.0074 TC 30 12.7000 79.4000 1 8 296
1882325N09089 1882 40 NI BB NOT_NAMED 1882-11-24 18:00:00 TS 12.9476 78.7946 main 0 0 _________OP___ -1 13.0000 78.6000 TC 30 12.8953 78.9891 1 9 292
1882325N09089 1882 40 NI BB NOT_NAMED 1882-11-24 21:00:00 TS 13.1127 78.3663 main 0 0 _________PP___ -1 13.1651 78.1701 TC 30 13.0604 78.5626 1 9 291
1882325N09089 1882 40 NI AS NOT_NAMED 1882-11-25 00:00:00 TS 13.2476 77.9774 main 0 0 _________OP___ -1 13.3000 77.8000 TC 30 13.1953 78.1548 1 7 288
1882325N09089 1882 40 NI AS NOT_NAMED 1882-11-25 03:00:00 TS 13.3324 77.6850 main 0 0 _________PO___ -1 13.3649 77.5699 TC 30 13.3000 77.8000 1 5 286
1882325N09089 1882 40 NI AS NOT_NAMED 1882-11-25 06:00:00 TS 13.3871 77.4752 main 0 0 _________OP___ -1 13.4000 77.4000 TC 30 13.3743 77.5503 1 4 285
1882325N09089 1882 40 NI AS NOT_NAMED 1882-11-25 09:00:00 TS 13.4360 77.2811 main 0 0 _________PP___ -1 13.4500 77.2075 TC 30 13.4220 77.3546 1 4 284
1882325N09089 1882 40 NI AS NOT_NAMED 1882-11-25 12:00:00 TS 13.4794 77.0908 main 0 0 _________OP___ -1 13.5000 77.0000 TC 30 13.4587 77.1816 1 4 282
1882325N09089 1882 40 NI AS NOT_NAMED 1882-11-25 15:00:00 TS 13.5212 76.8787 main 0 0 _________PO___ -1 13.5425 76.7575 TC 30 13.5000 77.0000 1 4 283
1882325N09089 1882 40 NI AS NOT_NAMED 1882-11-25 18:00:00 TS 13.5759 76.6630 main 0 0 _________OP___ -1 13.6000 76.5000 TC 30 13.5578 76.7852 1 5 287
1882325N09089 1882 40 NI AS NOT_NAMED 1882-11-25 21:00:00 TS 13.6543 76.4232 main 0 0 _________PP___ -1 13.6900 76.2476 TC 30 13.6305 76.5403 1 5 290
1882325N09089 1882 40 NI AS NOT_NAMED 1882-11-26 00:00:00 TS 13.7419 76.1835 main 0 0 _________OP___ -1 13.8000 76.0000 TC 30 13.7129 76.2753 1 4 289
1882325N09089 1882 40 NI AS NOT_NAMED 1882-11-26 03:00:00 NR 13.8000 76.0000 main 0 __________O___ -1 TC 13.8000 76.0000 1 4 288

IBTrACS Databaseについて

本データベースは、米国NOAAが公開する1842年以降の世界の熱帯低気圧のベストトラックデータアーカイブInternational Best Track Archive for Climate Stewardship (IBTrACS)を、ウェブで閲覧しやすい形式に変換したものです。

最終更新日:2021-12-01